createdAt,value
2019-06-20T00:01:11.735Z,23.90
2019-06-20T00:03:40.462Z,24.00
2019-06-20T00:06:09.190Z,24.00
2019-06-20T00:08:37.930Z,24.00
2019-06-20T00:11:06.864Z,24.00
2019-06-20T00:13:36.089Z,24.10
2019-06-20T00:16:04.938Z,24.10
2019-06-20T00:18:34.619Z,24.10
2019-06-20T00:21:03.719Z,24.10
2019-06-20T00:23:32.514Z,24.10
2019-06-20T00:26:01.581Z,24.10
2019-06-20T00:28:30.495Z,24.10
2019-06-20T00:30:59.351Z,24.10
2019-06-20T00:33:28.804Z,24.10
2019-06-20T00:35:58.040Z,24.10
2019-06-20T00:38:26.863Z,24.10
2019-06-20T00:40:56.145Z,24.00
2019-06-20T00:43:25.320Z,24.10
2019-06-20T00:45:54.098Z,24.00
2019-06-20T00:48:23.326Z,24.00
2019-06-20T00:50:52.179Z,24.00
2019-06-20T00:53:21.718Z,24.00
2019-06-20T00:55:50.792Z,24.00
2019-06-20T00:58:19.769Z,24.00
2019-06-20T01:00:49.102Z,24.00
2019-06-20T01:03:18.406Z,24.00
2019-06-20T01:05:47.127Z,24.00
2019-06-20T01:08:15.878Z,24.00
2019-06-20T01:10:46.158Z,23.90
2019-06-20T01:13:14.988Z,23.90
2019-06-20T01:15:44.075Z,23.90
2019-06-20T01:18:13.422Z,23.90
2019-06-20T01:20:42.507Z,23.90
2019-06-20T01:23:11.235Z,23.90
2019-06-20T01:25:41.073Z,23.90
2019-06-20T01:28:10.363Z,23.90
2019-06-20T01:30:39.426Z,23.90
2019-06-20T01:33:08.510Z,23.90
2019-06-20T01:35:37.942Z,23.90
2019-06-20T01:38:06.653Z,23.80
2019-06-20T01:40:35.408Z,23.80
2019-06-20T01:43:05.909Z,23.80
2019-06-20T01:45:35.805Z,23.80
2019-06-20T01:48:04.770Z,23.80
2019-06-20T01:50:33.608Z,23.80
2019-06-20T01:53:02.914Z,23.80
2019-06-20T01:55:31.951Z,23.80
2019-06-20T01:58:00.994Z,23.80
2019-06-20T02:00:44.208Z,23.80
2019-06-20T02:03:13.551Z,23.80
2019-06-20T02:05:42.258Z,23.80
2019-06-20T02:08:11.475Z,23.80
2019-06-20T02:10:40.637Z,23.80
2019-06-20T02:13:09.352Z,23.80
2019-06-20T02:15:38.342Z,23.80
2019-06-20T02:18:07.098Z,23.80
2019-06-20T02:20:37.412Z,23.80
2019-06-20T02:23:06.839Z,23.70
2019-06-20T02:25:35.722Z,23.70
2019-06-20T02:28:05.138Z,23.70
2019-06-20T02:30:34.531Z,23.70
2019-06-20T02:33:03.475Z,23.80
2019-06-20T02:35:33.302Z,23.70
2019-06-20T02:38:02.288Z,23.70
2019-06-20T02:40:31.005Z,23.70
2019-06-20T02:43:00.573Z,23.70
2019-06-20T02:45:29.614Z,23.60
2019-06-20T02:47:58.442Z,23.60
2019-06-20T02:50:27.744Z,23.70
2019-06-20T02:52:56.899Z,23.70
2019-06-20T02:55:25.756Z,23.70
2019-06-20T02:57:54.658Z,23.70
2019-06-20T03:00:53.777Z,23.70
2019-06-20T03:03:22.826Z,23.70
2019-06-20T03:05:51.590Z,23.70
2019-06-20T03:08:20.305Z,23.70
2019-06-20T03:10:49.019Z,23.70
2019-06-20T03:13:17.745Z,23.70
2019-06-20T03:15:51.011Z,23.60
2019-06-20T03:18:19.935Z,23.70
2019-06-20T03:20:49.468Z,23.70
2019-06-20T03:23:19.455Z,23.60
2019-06-20T03:25:48.561Z,23.70
2019-06-20T03:28:17.909Z,23.70
2019-06-20T03:30:47.215Z,23.70
2019-06-20T03:33:16.143Z,23.70
2019-06-20T03:35:44.915Z,23.60
2019-06-20T03:38:13.699Z,23.70
2019-06-20T03:40:42.855Z,23.60
2019-06-20T03:43:12.006Z,23.60
2019-06-20T03:45:41.071Z,23.60
2019-06-20T03:48:10.022Z,23.60
2019-06-20T03:50:39.101Z,23.60
2019-06-20T03:53:08.346Z,23.60
2019-06-20T03:55:37.626Z,23.60
2019-06-20T03:58:06.603Z,23.70
2019-06-20T04:00:36.446Z,23.70
2019-06-20T04:03:06.258Z,23.60
2019-06-20T04:05:35.937Z,23.60
2019-06-20T04:08:04.699Z,23.60
2019-06-20T04:10:33.938Z,23.70
2019-06-20T04:13:02.878Z,23.70
2019-06-20T04:15:31.934Z,23.70
2019-06-20T04:18:00.980Z,23.70
2019-06-20T04:20:29.692Z,23.60
2019-06-20T04:22:58.539Z,23.70
2019-06-20T04:25:28.610Z,23.70
2019-06-20T04:27:57.666Z,23.70
2019-06-20T04:30:27.226Z,23.70
2019-06-20T04:32:55.931Z,23.70
2019-06-20T04:35:24.771Z,23.70
2019-06-20T04:37:54.035Z,23.70
2019-06-20T04:40:22.916Z,23.70
2019-06-20T04:42:51.618Z,23.70
2019-06-20T04:45:36.435Z,23.70
2019-06-20T04:48:05.140Z,23.70
2019-06-20T04:50:34.242Z,23.70
2019-06-20T04:53:04.685Z,23.70
2019-06-20T04:55:33.555Z,23.70
2019-06-20T04:58:02.262Z,23.70
2019-06-20T05:00:31.580Z,23.70
2019-06-20T05:03:00.359Z,23.70
2019-06-20T05:05:29.137Z,23.70
2019-06-20T05:07:57.866Z,23.70
2019-06-20T05:10:26.582Z,23.70
2019-06-20T05:12:56.166Z,23.70
2019-06-20T05:15:25.798Z,23.70
2019-06-20T05:17:54.505Z,23.70
2019-06-20T05:20:23.334Z,23.70
2019-06-20T05:22:52.647Z,23.70
2019-06-20T05:25:21.366Z,23.70
2019-06-20T05:27:50.311Z,23.70
2019-06-20T05:30:19.727Z,23.70
2019-06-20T05:32:48.445Z,23.70
2019-06-20T05:35:17.139Z,23.70
2019-06-20T05:37:45.982Z,23.80
2019-06-20T05:40:14.729Z,23.80
2019-06-20T05:42:43.461Z,23.80
2019-06-20T05:45:12.861Z,23.80
2019-06-20T05:47:41.635Z,23.90
2019-06-20T05:50:10.366Z,23.90
2019-06-20T05:52:39.104Z,23.90
2019-06-20T05:55:08.305Z,23.90
2019-06-20T05:57:37.091Z,24.00
2019-06-20T06:00:08.394Z,24.00
2019-06-20T06:02:37.680Z,24.00
2019-06-20T06:05:06.903Z,24.00
2019-06-20T06:07:35.749Z,24.00
2019-06-20T06:10:05.647Z,24.00
2019-06-20T06:12:34.542Z,24.10
2019-06-20T06:15:03.939Z,24.10
2019-06-20T06:17:32.661Z,24.10
2019-06-20T06:20:01.372Z,24.10
2019-06-20T06:22:30.823Z,24.10
2019-06-20T06:24:59.561Z,24.10
2019-06-20T06:27:28.276Z,24.20
2019-06-20T06:29:58.400Z,24.30
2019-06-20T06:32:39.543Z,24.40
2019-06-20T06:34:57.549Z,24.40
2019-06-20T06:37:26.610Z,24.50
2019-06-20T06:39:55.342Z,24.60
2019-06-20T06:42:24.116Z,24.60
2019-06-20T06:44:53.385Z,24.60
2019-06-20T06:47:22.099Z,24.70
2019-06-20T06:49:50.826Z,24.60
2019-06-20T06:52:19.952Z,24.60
2019-06-20T06:54:48.671Z,24.60
2019-06-20T06:57:17.383Z,24.60
2019-06-20T06:59:46.430Z,24.70
2019-06-20T07:02:15.202Z,24.70
2019-06-20T07:04:43.923Z,24.60
2019-06-20T07:07:12.697Z,24.60
2019-06-20T07:09:41.410Z,24.70
2019-06-20T07:12:10.263Z,24.70
2019-06-20T07:14:42.539Z,24.70
2019-06-20T07:17:10.019Z,24.70
2019-06-20T07:19:38.811Z,24.70
2019-06-20T07:22:08.162Z,24.70
2019-06-20T07:24:36.873Z,24.70
2019-06-20T07:27:05.594Z,24.70
2019-06-20T07:29:34.938Z,24.70
2019-06-20T07:32:04.095Z,24.80
2019-06-20T07:34:32.890Z,24.90
2019-06-20T07:37:02.076Z,25.00
2019-06-20T07:39:30.844Z,25.00
2019-06-20T07:41:59.570Z,25.10
2019-06-20T07:44:29.086Z,25.00
2019-06-20T07:46:57.785Z,24.90
2019-06-20T07:49:26.514Z,24.90
2019-06-20T07:51:56.479Z,24.90
2019-06-20T07:54:25.192Z,25.00
2019-06-20T07:56:53.915Z,25.00
2019-06-20T07:59:22.879Z,25.00
2019-06-20T08:01:51.673Z,25.00
2019-06-20T08:04:20.394Z,25.10
2019-06-20T08:06:49.190Z,25.00
2019-06-20T08:09:17.888Z,25.00
2019-06-20T08:11:46.603Z,25.00
2019-06-20T08:14:15.362Z,25.00
2019-06-20T08:16:44.335Z,25.10
2019-06-20T08:19:13.034Z,25.10
2019-06-20T08:21:44.202Z,25.10
2019-06-20T08:24:12.731Z,25.20
2019-06-20T08:26:41.423Z,25.20
2019-06-20T08:29:20.642Z,25.20
2019-06-20T08:31:40.683Z,25.20
2019-06-20T08:34:10.070Z,25.30
2019-06-20T08:36:39.374Z,25.20
2019-06-20T08:39:08.951Z,24.60
2019-06-20T08:41:37.667Z,24.30
2019-06-20T08:44:07.330Z,24.20
2019-06-20T08:46:36.251Z,24.10
2019-06-20T08:49:05.776Z,24.00
2019-06-20T08:51:34.724Z,24.00
2019-06-20T08:54:03.780Z,24.20
2019-06-20T08:56:32.562Z,24.10
2019-06-20T08:59:02.407Z,24.00
2019-06-20T09:01:31.335Z,24.00
2019-06-20T09:04:00.132Z,24.00
2019-06-20T09:06:28.948Z,24.10
2019-06-20T09:08:58.293Z,24.10
2019-06-20T09:11:27.035Z,24.10
2019-06-20T09:13:57.000Z,24.10
2019-06-20T09:16:25.955Z,24.00
2019-06-20T09:18:55.055Z,24.00
2019-06-20T09:21:25.744Z,24.00
2019-06-20T09:23:55.641Z,24.00
2019-06-20T09:26:24.542Z,23.90
2019-06-20T09:28:55.627Z,23.90
2019-06-20T09:31:24.427Z,23.90
2019-06-20T09:33:53.784Z,23.90
2019-06-20T09:36:23.971Z,23.90
2019-06-20T09:38:53.969Z,23.80
2019-06-20T09:41:23.122Z,23.70
2019-06-20T09:43:52.740Z,23.60
2019-06-20T09:46:21.590Z,23.70
2019-06-20T09:48:51.059Z,23.60
2019-06-20T09:51:21.031Z,23.50
2019-06-20T09:53:49.919Z,23.60
2019-06-20T09:56:18.745Z,23.50
2019-06-20T09:58:48.324Z,23.50
2019-06-20T10:01:17.944Z,23.50
2019-06-20T10:03:47.862Z,23.50
2019-06-20T10:06:17.196Z,23.50
2019-06-20T10:08:47.091Z,23.50
2019-06-20T10:11:16.413Z,23.60
2019-06-20T10:13:46.849Z,23.80
2019-06-20T10:16:15.562Z,23.70
2019-06-20T10:18:44.265Z,23.80
2019-06-20T10:21:13.524Z,23.80
2019-06-20T10:23:42.226Z,23.90
2019-06-20T10:26:10.958Z,23.80
2019-06-20T10:28:39.694Z,23.90
2019-06-20T10:31:08.414Z,23.90
2019-06-20T10:33:37.199Z,24.10
2019-06-20T10:36:05.947Z,24.20
2019-06-20T10:38:34.919Z,24.20
2019-06-20T10:41:03.696Z,24.30
2019-06-20T10:43:32.991Z,24.20
2019-06-20T10:46:01.719Z,24.40
2019-06-20T10:48:30.579Z,24.40
2019-06-20T10:51:18.944Z,24.30
2019-06-20T10:53:49.216Z,24.20
2019-06-20T10:56:18.068Z,24.20
2019-06-20T10:58:46.995Z,24.20
2019-06-20T11:01:15.816Z,24.20
2019-06-20T11:03:45.984Z,24.30
2019-06-20T11:06:15.331Z,24.30
2019-06-20T11:08:45.143Z,24.40
2019-06-20T11:11:13.858Z,24.40
2019-06-20T11:13:44.373Z,24.40
2019-06-20T11:16:13.569Z,24.40
2019-06-20T11:18:43.638Z,24.50
2019-06-20T11:21:12.763Z,24.50
2019-06-20T11:23:42.836Z,24.60
2019-06-20T11:26:12.798Z,24.70
2019-06-20T11:28:41.625Z,24.70
2019-06-20T11:31:10.524Z,24.70
2019-06-20T11:33:40.402Z,24.80
2019-06-20T11:36:09.606Z,24.80
2019-06-20T11:38:39.604Z,24.70
2019-06-20T11:41:08.771Z,24.70
2019-06-20T11:43:38.381Z,24.60
2019-06-20T11:46:07.771Z,24.60
2019-06-20T11:48:36.954Z,24.60
2019-06-20T11:51:06.222Z,24.50
2019-06-20T11:53:36.455Z,24.50
2019-06-20T11:56:05.689Z,24.50
2019-06-20T11:58:34.720Z,24.20
2019-06-20T12:01:04.289Z,24.30
2019-06-20T12:03:33.649Z,24.50
2019-06-20T12:06:02.659Z,24.70
2019-06-20T12:08:32.214Z,24.80
2019-06-20T12:11:01.211Z,24.90
2019-06-20T12:13:29.962Z,25.00
2019-06-20T12:15:58.958Z,24.90
2019-06-20T12:18:28.188Z,25.00
2019-06-20T12:20:57.286Z,25.00
2019-06-20T12:23:26.141Z,25.00
2019-06-20T12:25:55.180Z,25.00
2019-06-20T12:28:23.919Z,25.10
2019-06-20T12:30:52.812Z,25.10
2019-06-20T12:33:21.873Z,25.20
2019-06-20T12:35:50.903Z,25.20
2019-06-20T12:38:19.674Z,25.20
2019-06-20T12:40:48.404Z,24.90
2019-06-20T12:43:17.853Z,25.10
2019-06-20T12:45:47.486Z,25.20
2019-06-20T12:48:16.413Z,25.30
2019-06-20T12:50:47.576Z,25.20
2019-06-20T12:53:18.375Z,25.10
2019-06-20T12:55:47.588Z,25.10
2019-06-20T12:58:16.687Z,25.10
2019-06-20T13:00:46.551Z,25.00
2019-06-20T13:03:15.608Z,25.10
2019-06-20T13:05:44.901Z,25.10
2019-06-20T13:08:13.909Z,25.10
2019-06-20T13:10:46.077Z,25.10
2019-06-20T13:13:15.248Z,25.10
2019-06-20T13:15:44.580Z,25.10
2019-06-20T13:18:13.835Z,25.20
2019-06-20T13:20:44.253Z,25.20
2019-06-20T13:23:13.727Z,25.30
2019-06-20T13:25:42.663Z,25.30
2019-06-20T13:28:11.594Z,25.30
2019-06-20T13:30:41.672Z,25.20
2019-06-20T13:33:10.792Z,25.30
2019-06-20T13:35:40.507Z,25.50
2019-06-20T13:38:10.337Z,25.60
2019-06-20T13:40:40.255Z,25.50
2019-06-20T13:43:10.238Z,25.50
2019-06-20T13:45:40.606Z,25.30
2019-06-20T13:48:10.011Z,25.20
2019-06-20T13:50:40.033Z,25.10
2019-06-20T13:53:09.654Z,25.20
2019-06-20T13:55:39.427Z,25.00
2019-06-20T13:58:09.047Z,25.20
2019-06-20T14:00:37.774Z,25.10
2019-06-20T14:03:06.801Z,25.30
2019-06-20T14:05:36.166Z,25.30
2019-06-20T14:08:04.904Z,25.30
2019-06-20T14:10:34.093Z,25.40
2019-06-20T14:13:15.537Z,25.40
2019-06-20T14:15:34.025Z,25.10
2019-06-20T14:18:03.276Z,25.20
2019-06-20T14:20:32.084Z,25.30
2019-06-20T14:23:00.899Z,25.20
2019-06-20T14:25:30.242Z,25.10
2019-06-20T14:27:59.262Z,25.00
2019-06-20T14:30:30.269Z,25.10
2019-06-20T14:32:59.550Z,25.10
2019-06-20T14:35:28.283Z,24.80
2019-06-20T14:37:57.102Z,24.90
2019-06-20T14:40:25.807Z,24.90
2019-06-20T14:42:54.762Z,25.10
2019-06-20T14:45:24.068Z,25.10
2019-06-20T14:47:53.075Z,25.10
2019-06-20T14:50:21.907Z,24.90
2019-06-20T14:52:52.172Z,24.80
2019-06-20T14:55:21.357Z,24.30
2019-06-20T14:57:50.957Z,24.50
2019-06-20T15:00:22.691Z,24.50
2019-06-20T15:02:55.474Z,24.50
2019-06-20T15:05:22.186Z,24.80
2019-06-20T15:07:53.353Z,25.00
2019-06-20T15:10:21.644Z,25.10
2019-06-20T15:12:52.257Z,25.00
2019-06-20T15:15:21.986Z,25.10
2019-06-20T15:17:53.700Z,25.20
2019-06-20T15:20:21.918Z,25.20
2019-06-20T15:22:52.579Z,25.10
2019-06-20T15:25:22.048Z,25.10
2019-06-20T15:27:53.943Z,25.10
2019-06-20T15:30:22.688Z,25.00
2019-06-20T15:33:04.402Z,25.10
2019-06-20T15:35:22.790Z,25.20
2019-06-20T15:37:53.587Z,25.00
2019-06-20T15:40:22.090Z,24.90
2019-06-20T15:42:53.125Z,24.90
2019-06-20T15:45:22.198Z,25.20
2019-06-20T15:47:51.417Z,25.00
2019-06-20T15:50:20.576Z,24.80
2019-06-20T15:52:49.432Z,24.80
2019-06-20T15:55:20.535Z,24.70
2019-06-20T15:57:49.300Z,24.70
2019-06-20T16:00:18.132Z,24.70
2019-06-20T16:02:46.915Z,24.80
2019-06-20T16:05:15.651Z,24.80
2019-06-20T16:07:44.377Z,24.90
2019-06-20T16:10:13.104Z,24.90
2019-06-20T16:12:41.952Z,24.90
2019-06-20T16:15:10.772Z,24.90
2019-06-20T16:17:39.548Z,24.60
2019-06-20T16:20:09.738Z,24.60
2019-06-20T16:22:38.791Z,24.60
2019-06-20T16:25:07.593Z,24.60
2019-06-20T16:27:36.450Z,24.50
2019-06-20T16:30:05.793Z,24.60
2019-06-20T16:32:34.685Z,24.60
2019-06-20T16:35:04.301Z,24.70
2019-06-20T16:37:33.154Z,24.70
2019-06-20T16:40:01.901Z,24.50
2019-06-20T16:42:30.975Z,24.40
2019-06-20T16:44:59.910Z,24.40
2019-06-20T16:47:28.796Z,24.40
2019-06-20T16:49:57.638Z,24.30
2019-06-20T16:52:26.960Z,24.30
2019-06-20T16:54:55.669Z,24.40
2019-06-20T16:57:24.718Z,24.40
2019-06-20T16:59:53.744Z,24.40
2019-06-20T17:02:22.990Z,24.20
2019-06-20T17:04:51.890Z,24.20
2019-06-20T17:07:20.807Z,24.20
2019-06-20T17:09:49.896Z,24.10
2019-06-20T17:12:18.684Z,24.20
2019-06-20T17:14:47.408Z,24.20
2019-06-20T17:17:16.630Z,24.10
2019-06-20T17:19:46.244Z,24.10
2019-06-20T17:22:15.121Z,24.00
2019-06-20T17:24:44.513Z,24.10
2019-06-20T17:27:13.527Z,24.10
2019-06-20T17:29:42.486Z,24.10
2019-06-20T17:32:11.483Z,24.00
2019-06-20T17:34:40.594Z,24.00
2019-06-20T17:37:09.433Z,24.00
2019-06-20T17:39:38.220Z,24.10
2019-06-20T17:42:07.011Z,24.20
2019-06-20T17:44:36.003Z,24.30
2019-06-20T17:47:05.242Z,24.40
2019-06-20T17:49:34.228Z,24.40
2019-06-20T17:52:03.279Z,24.30
2019-06-20T17:54:32.571Z,24.30
2019-06-20T17:57:01.459Z,24.10
2019-06-20T17:59:30.474Z,23.90
2019-06-20T18:01:59.253Z,23.80
2019-06-20T18:04:28.201Z,23.80
2019-06-20T18:06:57.222Z,23.60
2019-06-20T18:09:26.489Z,23.80
2019-06-20T18:11:55.547Z,23.60
2019-06-20T18:14:24.319Z,23.80
2019-06-20T18:16:53.543Z,23.50
2019-06-20T18:19:22.305Z,23.40
2019-06-20T18:21:51.660Z,23.60
2019-06-20T18:24:20.519Z,23.70
2019-06-20T18:26:49.268Z,23.80
